Time;durP1;ratioP1;P1;durP2;ratioP2;P2;SDS_P1;SDS_P2;PMS_P1;PMS_P2;Temp;Humidity;BMP_temperature;BMP_pressure;BME280_temperature;BME280_humidity;BME280_pressure;Samples;Min_cycle;Max_cycle;Signal;HPM_P1;HPM_P2
2023/11/15 00:00:25;;;;;;;0.73;0.73;;;11.60;99.90;;;;;;5050916;28;20507;-64
2023/11/15 00:02:52;;;;;;;0.83;0.60;;;11.60;99.90;;;;;;5049659;28;20327;-64
2023/11/15 00:05:19;;;;;;;0.57;0.50;;;11.60;99.90;;;;;;5050961;28;20196;-64
2023/11/15 00:07:46;;;;;;;0.63;0.47;;;11.60;99.90;;;;;;5049938;28;20289;-64
2023/11/15 00:10:14;;;;;;;0.63;0.60;;;11.50;99.90;;;;;;5049547;28;20260;-63
2023/11/15 00:12:42;;;;;;;0.47;0.47;;;11.50;99.90;;;;;;5032102;28;20272;-63
2023/11/15 00:15:10;;;;;;;0.50;0.50;;;11.50;99.90;;;;;;5046431;28;20199;-63
2023/11/15 00:17:37;;;;;;;0.40;0.40;;;11.50;99.90;;;;;;5049718;28;20218;-63
2023/11/15 00:20:05;;;;;;;0.50;0.50;;;11.50;99.90;;;;;;5048651;28;20745;-64
2023/11/15 00:22:32;;;;;;;1.10;1.00;;;11.40;99.90;;;;;;5050388;28;20193;-63
2023/11/15 00:25:00;;;;;;;1.27;1.00;;;11.40;99.90;;;;;;5053442;28;20193;-64
2023/11/15 00:27:27;;;;;;;1.47;1.37;;;11.40;99.90;;;;;;5053530;28;20246;-64
2023/11/15 00:29:54;;;;;;;1.70;1.60;;;11.40;99.90;;;;;;5036129;28;20236;-64
2023/11/15 00:32:23;;;;;;;1.30;1.30;;;11.40;99.90;;;;;;5036074;28;20210;-63
2023/11/15 00:34:50;;;;;;;1.40;1.30;;;11.40;99.90;;;;;;5052401;28;20217;-63
2023/11/15 00:37:17;;;;;;;1.10;1.10;;;11.30;99.90;;;;;;5053538;28;20295;-64
2023/11/15 00:39:44;;;;;;;1.00;1.00;;;11.30;99.90;;;;;;5047365;28;20186;-64
2023/11/15 00:42:12;;;;;;;0.80;0.80;;;11.30;99.90;;;;;;5052006;28;20186;-64
2023/11/15 00:44:39;;;;;;;0.93;0.80;;;11.30;99.90;;;;;;5053296;28;20280;-63
2023/11/15 00:47:06;;;;;;;0.80;0.80;;;11.30;99.90;;;;;;5053693;28;20594;-63
2023/11/15 00:49:37;;;;;;;0.80;0.80;;;11.30;99.90;;;;;;5052135;28;20221;-62
2023/11/15 00:52:04;;;;;;;0.80;0.80;;;11.40;99.90;;;;;;5053588;28;20200;-64
2023/11/15 00:54:31;;;;;;;0.70;0.70;;;11.30;99.90;;;;;;5034375;28;20232;-64
2023/11/15 00:56:58;;;;;;;0.83;0.83;;;11.30;99.90;;;;;;5048293;28;20210;-63
2023/11/15 00:59:36;;;;;;;1.17;1.10;;;11.40;99.90;;;;;;5032593;28;20210;-64
2023/11/15 01:02:05;;;;;;;0.80;0.80;;;11.40;99.90;;;;;;5050782;28;20232;-64
2023/11/15 01:04:32;;;;;;;1.17;1.07;;;11.40;99.90;;;;;;5034312;28;20350;-64
2023/11/15 01:07:01;;;;;;;1.10;1.10;;;11.40;99.90;;;;;;5053324;28;20672;-64
2023/11/15 01:09:33;;;;;;;0.90;0.90;;;11.40;99.90;;;;;;5034083;28;20221;-63
2023/11/15 01:12:01;;;;;;;0.90;0.90;;;11.40;99.90;;;;;;5053043;28;20204;-63
2023/11/15 01:14:28;;;;;;;1.17;1.17;;;11.30;99.90;;;;;;5053036;28;20197;-63
2023/11/15 01:16:55;;;;;;;1.00;1.00;;;11.30;99.90;;;;;;5052795;28;20205;-64
2023/11/15 01:19:22;;;;;;;1.20;1.03;;;11.30;99.90;;;;;;5051926;28;20542;-63
2023/11/15 01:21:50;;;;;;;1.13;0.93;;;11.30;99.90;;;;;;5053256;28;20194;-63
2023/11/15 01:24:18;;;;;;;0.97;0.90;;;11.30;99.90;;;;;;5045853;28;20267;-64
2023/11/15 01:26:45;;;;;;;1.77;1.03;;;11.30;99.90;;;;;;5051161;28;20224;-63
2023/11/15 01:29:13;;;;;;;1.10;1.00;;;11.30;99.90;;;;;;5052615;28;20247;-64
2023/11/15 01:31:40;;;;;;;1.20;1.10;;;11.30;99.90;;;;;;5034611;28;20220;-63
2023/11/15 01:34:07;;;;;;;0.93;0.93;;;11.20;99.90;;;;;;5051596;28;20209;-63
2023/11/15 01:36:34;;;;;;;0.80;0.80;;;11.20;99.90;;;;;;5052601;28;20209;-63
2023/11/15 01:39:01;;;;;;;0.90;0.90;;;11.20;99.90;;;;;;5051328;28;20213;-64
2023/11/15 01:41:29;;;;;;;1.20;1.00;;;11.10;99.90;;;;;;5027695;28;20202;-63
2023/11/15 01:43:57;;;;;;;0.90;0.90;;;11.10;99.90;;;;;;5027073;28;20221;-64
2023/11/15 01:46:24;;;;;;;0.80;0.80;;;11.10;99.90;;;;;;5052441;28;20208;-63
2023/11/15 01:48:51;;;;;;;0.70;0.70;;;11.00;99.90;;;;;;5051546;28;20592;-63
2023/11/15 01:51:18;;;;;;;1.47;0.83;;;11.00;99.90;;;;;;5052494;28;20201;-63
2023/11/15 01:53:47;;;;;;;0.90;0.90;;;11.00;99.90;;;;;;5051664;28;20201;-63
2023/11/15 01:56:14;;;;;;;0.60;0.60;;;11.00;99.90;;;;;;5052207;28;20638;-63
2023/11/15 01:58:43;;;;;;;0.60;0.60;;;11.00;99.90;;;;;;5033985;28;20309;-63
2023/11/15 02:01:11;;;;;;;0.70;0.70;;;11.00;99.90;;;;;;5034050;28;20279;-63
2023/11/15 02:03:40;;;;;;;0.80;0.80;;;10.90;99.90;;;;;;5033136;28;20241;-63
2023/11/15 02:06:08;;;;;;;3.93;1.47;;;11.00;99.90;;;;;;5051898;28;20659;-63
2023/11/15 02:08:36;;;;;;;2.87;1.17;;;10.90;99.90;;;;;;5052024;28;20190;-64
2023/11/15 02:11:04;;;;;;;5.90;1.37;;;10.90;99.90;;;;;;5033571;28;20212;-62
2023/11/15 02:13:31;;;;;;;2.07;1.10;;;10.90;99.90;;;;;;5052164;28;20201;-62
2023/11/15 02:16:01;;;;;;;7.57;1.53;;;10.90;99.90;;;;;;5051453;28;20211;-62
2023/11/15 02:18:28;;;;;;;4.97;1.40;;;10.80;99.90;;;;;;5051131;28;20553;-64
2023/11/15 02:20:56;;;;;;;5.87;1.63;;;10.80;99.90;;;;;;5034207;28;20233;-63
2023/11/15 02:23:23;;;;;;;3.23;1.30;;;10.80;99.90;;;;;;5051276;28;20200;-64
2023/11/15 02:25:52;;;;;;;2.37;1.50;;;10.80;99.90;;;;;;5050127;28;20198;-64
2023/11/15 02:28:19;;;;;;;1.83;1.30;;;10.70;99.90;;;;;;5050535;28;20190;-63
2023/11/15 02:30:47;;;;;;;1.27;1.17;;;10.70;99.90;;;;;;5033607;28;20205;-63
2023/11/15 02:33:14;;;;;;;0.83;0.83;;;10.70;99.90;;;;;;5050878;28;20634;-64
2023/11/15 02:35:42;;;;;;;1.47;0.90;;;10.70;99.90;;;;;;5049671;28;20274;-62
2023/11/15 02:38:09;;;;;;;1.60;0.73;;;10.70;99.90;;;;;;5048105;28;20242;-63
2023/11/15 02:40:36;;;;;;;1.10;1.00;;;10.70;99.90;;;;;;5050797;28;20296;-63
2023/11/15 02:43:05;;;;;;;1.17;0.77;;;10.70;99.90;;;;;;5050765;28;20205;-62
2023/11/15 02:45:33;;;;;;;0.60;0.60;;;10.70;99.90;;;;;;5050999;28;20205;-64
2023/11/15 02:48:00;;;;;;;0.90;0.90;;;10.60;99.90;;;;;;5049840;28;20610;-64
2023/11/15 02:50:30;;;;;;;0.70;0.70;;;10.70;99.90;;;;;;5051538;28;20194;-63
2023/11/15 02:52:58;;;;;;;0.70;0.70;;;10.70;99.90;;;;;;5043294;28;20201;-63
2023/11/15 02:55:25;;;;;;;3.43;1.07;;;10.70;99.90;;;;;;5050515;28;20198;-63
2023/11/15 02:57:53;;;;;;;2.03;1.00;;;10.70;99.90;;;;;;5049929;28;20271;-63
2023/11/15 03:00:21;;;;;;;0.60;0.50;;;10.70;99.90;;;;;;5051291;28;20201;-63
2023/11/15 03:02:49;;;;;;;1.90;0.60;;;10.70;99.90;;;;;;5049703;28;20325;-62
2023/11/15 03:05:17;;;;;;;0.73;0.73;;;10.70;99.90;;;;;;5051364;28;20686;-63
2023/11/15 03:07:44;;;;;;;3.97;1.23;;;10.70;99.90;;;;;;5050142;28;20301;-63
2023/11/15 03:10:11;;;;;;;1.67;1.33;;;10.70;99.90;;;;;;5050200;28;20258;-63
2023/11/15 03:12:38;;;;;;;6.30;1.00;;;10.70;99.90;;;;;;5050330;28;20205;-63
2023/11/15 03:15:06;;;;;;;1.83;1.10;;;10.70;99.90;;;;;;5050541;28;20699;-64
2023/11/15 03:17:35;;;;;;;2.93;1.63;;;10.60;99.90;;;;;;5050028;28;20916;-63
2023/11/15 03:20:03;;;;;;;1.43;1.30;;;10.60;99.90;;;;;;5050238;28;20187;-64
2023/11/15 03:22:30;;;;;;;3.87;1.40;;;10.60;99.90;;;;;;5042715;28;20194;-63
2023/11/15 03:24:57;;;;;;;4.53;1.60;;;10.60;99.90;;;;;;5048264;28;20261;-63
2023/11/15 03:27:24;;;;;;;1.77;1.57;;;10.60;99.90;;;;;;5047732;28;20217;-64
2023/11/15 03:29:51;;;;;;;2.13;1.43;;;10.50;99.90;;;;;;5032771;28;20251;-64
2023/11/15 03:32:18;;;;;;;3.13;1.47;;;10.50;99.90;;;;;;5050444;28;20703;-64
2023/11/15 03:34:49;;;;;;;1.53;1.43;;;10.50;99.90;;;;;;5050001;28;20532;-63
2023/11/15 03:37:16;;;;;;;1.40;1.30;;;10.50;99.90;;;;;;5049844;28;20215;-64
2023/11/15 03:39:45;;;;;;;1.30;1.20;;;10.50;99.90;;;;;;5049182;28;20208;-63
2023/11/15 03:42:12;;;;;;;1.00;1.00;;;10.40;99.90;;;;;;5032072;28;20190;-63
2023/11/15 03:44:40;;;;;;;1.53;1.20;;;10.40;99.90;;;;;;5050841;28;20244;-64
2023/11/15 03:47:07;;;;;;;1.23;1.20;;;10.40;99.90;;;;;;5047880;28;20193;-63
2023/11/15 03:49:34;;;;;;;1.37;1.27;;;10.40;99.90;;;;;;5049730;28;20212;-63
2023/11/15 03:52:03;;;;;;;1.40;1.30;;;10.40;99.90;;;;;;5048685;28;20553;-63
2023/11/15 03:54:30;;;;;;;1.40;1.30;;;10.30;99.90;;;;;;5048960;28;20194;-64
2023/11/15 03:56:57;;;;;;;1.47;1.30;;;10.30;99.90;;;;;;5048306;28;20288;-64
2023/11/15 03:59:24;;;;;;;1.50;1.40;;;10.20;99.90;;;;;;5052871;28;20756;-64
2023/11/15 04:01:52;;;;;;;0.90;0.90;;;10.20;99.90;;;;;;5054376;28;20557;-63
2023/11/15 04:04:19;;;;;;;1.40;1.30;;;10.20;99.90;;;;;;5053309;28;20291;-64
2023/11/15 04:06:46;;;;;;;1.20;1.20;;;10.30;99.90;;;;;;5054556;28;20254;-64
2023/11/15 04:09:14;;;;;;;1.50;1.40;;;10.30;99.90;;;;;;5035167;28;20202;-64
2023/11/15 04:11:41;;;;;;;1.80;1.70;;;10.30;99.90;;;;;;5053242;28;20197;-64
2023/11/15 04:14:08;;;;;;;1.70;1.40;;;10.30;99.90;;;;;;5053873;28;20217;-64
2023/11/15 04:16:36;;;;;;;2.00;1.80;;;10.30;99.90;;;;;;5054493;28;20198;-64
2023/11/15 04:19:03;;;;;;;1.90;1.80;;;10.30;99.90;;;;;;5035187;28;20283;-64
2023/11/15 04:21:30;;;;;;;2.00;1.90;;;10.30;99.90;;;;;;5054118;28;20297;-64
2023/11/15 04:23:58;;;;;;;2.07;1.83;;;10.20;99.90;;;;;;5053306;28;20748;-63
2023/11/15 04:26:27;;;;;;;1.80;1.70;;;10.20;99.90;;;;;;5053850;28;20232;-63
2023/11/15 04:28:54;;;;;;;3.70;2.17;;;10.20;99.90;;;;;;5053973;28;20200;-62
2023/11/15 04:31:22;;;;;;;3.97;2.97;;;10.20;99.90;;;;;;5054391;28;20205;-62
2023/11/15 04:33:51;;;;;;;2.70;2.50;;;10.20;99.90;;;;;;5053544;28;20206;-63
2023/11/15 04:36:19;;;;;;;5.50;2.73;;;10.20;99.90;;;;;;5053809;28;20193;-62
2023/11/15 04:38:47;;;;;;;2.80;2.60;;;10.20;99.90;;;;;;5051109;28;20637;-63
2023/11/15 04:41:14;;;;;;;2.50;2.30;;;10.20;99.90;;;;;;5052611;28;20705;-63
2023/11/15 04:43:43;;;;;;;2.90;2.70;;;10.20;99.90;;;;;;5053532;28;20731;-63
2023/11/15 04:46:10;;;;;;;2.83;2.50;;;10.20;99.90;;;;;;5035460;28;20208;-63
2023/11/15 04:48:38;;;;;;;4.43;2.80;;;10.10;99.90;;;;;;5035011;28;20723;-64
2023/11/15 04:51:06;;;;;;;3.23;2.90;;;10.10;99.90;;;;;;5053913;28;20662;-63
2023/11/15 04:53:33;;;;;;;3.50;3.10;;;10.10;99.90;;;;;;5052945;28;20194;-62
2023/11/15 04:56:02;;;;;;;3.20;2.90;;;10.20;99.90;;;;;;5052523;28;20678;-62
2023/11/15 04:58:29;;;;;;;4.37;3.47;;;10.10;99.90;;;;;;5046817;28;20261;-62
2023/11/15 05:00:57;;;;;;;3.37;3.07;;;10.20;99.90;;;;;;5053386;28;20244;-63
2023/11/15 05:03:24;;;;;;;3.63;3.33;;;10.10;99.90;;;;;;5050246;28;20244;-63
2023/11/15 05:05:52;;;;;;;3.93;3.23;;;10.10;99.90;;;;;;5036021;28;20560;-63
2023/11/15 05:08:19;;;;;;;5.17;3.77;;;10.10;99.90;;;;;;5051999;28;20191;-63
2023/11/15 05:10:46;;;;;;;4.63;3.53;;;10.10;99.90;;;;;;5052252;28;20196;-63
2023/11/15 05:13:13;;;;;;;3.97;3.30;;;10.10;99.90;;;;;;5052224;28;20260;-63
2023/11/15 05:15:40;;;;;;;3.40;3.10;;;10.00;99.90;;;;;;5034883;28;20216;-64
2023/11/15 05:18:09;;;;;;;4.00;3.60;;;10.10;99.90;;;;;;5051988;28;20309;-64
2023/11/15 05:20:36;;;;;;;4.23;3.60;;;10.00;99.90;;;;;;5051682;28;20205;-63
2023/11/15 05:23:03;;;;;;;3.60;3.30;;;10.00;99.90;;;;;;5052023;28;20532;-63
2023/11/15 05:25:32;;;;;;;3.93;2.90;;;10.00;99.90;;;;;;5049132;28;20216;-63
2023/11/15 05:27:59;;;;;;;3.33;3.00;;;10.00;99.90;;;;;;5052257;28;20208;-63
2023/11/15 05:30:27;;;;;;;3.50;3.20;;;10.00;99.90;;;;;;5051861;28;20651;-64
2023/11/15 05:32:54;;;;;;;3.40;3.10;;;10.10;99.90;;;;;;5051680;28;20206;-64
2023/11/15 05:35:22;;;;;;;4.20;3.20;;;10.10;99.90;;;;;;5053010;28;20197;-64
2023/11/15 05:37:49;;;;;;;3.20;2.90;;;10.00;99.90;;;;;;5051535;28;20292;-64
2023/11/15 05:40:16;;;;;;;3.63;3.33;;;10.10;99.90;;;;;;5032830;28;20220;-64
2023/11/15 05:42:43;;;;;;;4.20;3.47;;;10.00;99.90;;;;;;5034425;28;20210;-64
2023/11/15 05:45:11;;;;;;;4.10;3.70;;;10.10;99.90;;;;;;5052748;28;20199;-64
2023/11/15 05:47:38;;;;;;;5.00;3.97;;;10.00;99.90;;;;;;5051779;28;20677;-63
2023/11/15 05:50:08;;;;;;;4.00;3.70;;;10.00;99.90;;;;;;5034160;28;20197;-63
2023/11/15 05:52:37;;;;;;;3.57;3.27;;;10.00;99.90;;;;;;5052159;28;20190;-63
2023/11/15 05:55:06;;;;;;;3.27;2.90;;;10.00;99.90;;;;;;5052081;28;20205;-63
2023/11/15 05:57:33;;;;;;;3.30;3.00;;;10.00;99.90;;;;;;5033823;28;20317;-63
2023/11/15 06:00:03;;;;;;;4.23;3.40;;;10.00;99.90;;;;;;5033995;28;20271;-63
2023/11/15 06:02:40;;;;;;;3.27;2.97;;;10.00;99.90;;;;;;5045743;28;20197;-62
2023/11/15 06:05:08;;;;;;;3.37;3.07;;;10.10;99.90;;;;;;5048859;28;20617;-63
2023/11/15 06:07:36;;;;;;;3.93;3.23;;;10.10;99.90;;;;;;5051446;28;20190;-63
2023/11/15 06:10:04;;;;;;;2.93;2.73;;;10.10;99.90;;;;;;5050122;28;20522;-63
2023/11/15 06:12:31;;;;;;;2.80;2.50;;;10.10;99.90;;;;;;5051101;28;20212;-63
2023/11/15 06:14:58;;;;;;;3.10;2.80;;;10.00;99.90;;;;;;5052018;28;20221;-63
2023/11/15 06:17:28;;;;;;;3.70;3.40;;;10.10;99.90;;;;;;5052100;28;20607;-63
2023/11/15 06:19:54;;;;;;;3.07;2.80;;;10.10;99.90;;;;;;5050999;28;20194;-63
2023/11/15 06:22:23;;;;;;;4.10;2.80;;;10.10;99.90;;;;;;5050821;28;20188;-63
2023/11/15 06:24:52;;;;;;;2.97;2.77;;;10.10;99.90;;;;;;5050886;28;20270;-63
2023/11/15 06:27:20;;;;;;;2.87;2.67;;;10.10;99.90;;;;;;5051295;28;20200;-62
2023/11/15 06:29:48;;;;;;;2.27;2.17;;;10.00;99.90;;;;;;5051794;28;20194;-63
2023/11/15 06:32:15;;;;;;;3.00;2.60;;;10.00;99.90;;;;;;5051400;28;20199;-63
2023/11/15 06:34:44;;;;;;;3.00;2.80;;;10.10;99.90;;;;;;5050937;28;20223;-63
2023/11/15 06:37:12;;;;;;;2.70;2.50;;;10.50;99.90;;;;;;5051268;28;20202;-62
2023/11/15 06:39:42;;;;;;;2.77;2.53;;;10.10;99.90;;;;;;5050673;28;20201;-63
2023/11/15 06:42:11;;;;;;;2.73;2.53;;;10.10;99.90;;;;;;5031597;28;20217;-62
2023/11/15 06:44:39;;;;;;;3.73;2.70;;;10.10;99.90;;;;;;5051170;28;20186;-64
2023/11/15 06:47:08;;;;;;;2.97;2.77;;;10.10;99.90;;;;;;5051734;28;20199;-62
2023/11/15 06:49:36;;;;;;;3.17;2.97;;;10.00;99.90;;;;;;5050518;28;20189;-63
2023/11/15 06:52:03;;;;;;;3.63;3.03;;;10.00;99.90;;;;;;5051489;28;20200;-63
2023/11/15 06:54:30;;;;;;;3.03;2.80;;;10.00;99.90;;;;;;5050151;28;20276;-63
2023/11/15 06:56:58;;;;;;;3.13;2.70;;;10.00;99.90;;;;;;5051249;28;20284;-63
2023/11/15 06:59:26;;;;;;;2.40;2.20;;;10.00;99.90;;;;;;5050867;28;20696;-64
2023/11/15 07:01:55;;;;;;;2.40;2.20;;;11.20;99.90;;;;;;5047676;28;20199;-63
2023/11/15 07:04:22;;;;;;;2.70;2.50;;;9.90;99.90;;;;;;5009048;28;20233;-63
2023/11/15 07:06:49;;;;;;;3.63;2.80;;;9.90;99.90;;;;;;5043533;28;20191;-63
2023/11/15 07:09:18;;;;;;;2.73;2.50;;;9.90;99.90;;;;;;5039436;28;20202;-62
2023/11/15 07:11:46;;;;;;;2.93;2.37;;;9.90;99.90;;;;;;5047340;28;20204;-63
2023/11/15 07:14:14;;;;;;;2.23;1.93;;;10.00;99.90;;;;;;5046881;28;20645;-64
2023/11/15 07:16:47;;;;;;;2.50;2.30;;;10.00;99.90;;;;;;5048259;28;20196;-64
2023/11/15 07:19:14;;;;;;;2.47;2.27;;;10.00;99.90;;;;;;5040794;28;20723;-64
2023/11/15 07:21:41;;;;;;;2.53;2.33;;;10.00;99.90;;;;;;5048194;28;20206;-64
2023/11/15 07:24:09;;;;;;;2.47;2.27;;;10.00;99.90;;;;;;5042996;28;20200;-63
2023/11/15 07:26:37;;;;;;;2.30;2.20;;;10.00;99.90;;;;;;5042643;28;20695;-63
2023/11/15 07:29:06;;;;;;;3.20;2.40;;;10.00;99.90;;;;;;5043653;28;20193;-64
2023/11/15 07:31:34;;;;;;;3.00;2.70;;;10.00;99.90;;;;;;5031129;28;20196;-64
2023/11/15 07:34:05;;;;;;;2.30;2.10;;;10.00;99.90;;;;;;5044985;28;20276;-64
2023/11/15 07:36:33;;;;;;;2.40;2.20;;;10.00;99.90;;;;;;5047402;28;20625;-63
2023/11/15 07:39:01;;;;;;;2.83;2.57;;;10.00;99.90;;;;;;5043046;28;20225;-63
2023/11/15 07:41:28;;;;;;;2.03;1.93;;;10.10;99.90;;;;;;5047406;28;20197;-63
2023/11/15 07:43:55;;;;;;;2.27;2.07;;;10.10;99.90;;;;;;5044910;28;20199;-63
2023/11/15 07:46:24;;;;;;;3.70;2.73;;;10.10;99.90;;;;;;5045315;28;20210;-63
2023/11/15 07:48:50;;;;;;;5.03;2.77;;;10.10;99.90;;;;;;5045579;28;20208;-64
2023/11/15 07:51:19;;;;;;;3.20;2.50;;;10.10;99.90;;;;;;5047177;28;20182;-63
2023/11/15 07:53:48;;;;;;;2.17;2.07;;;10.00;99.90;;;;;;5030643;28;20198;-63
2023/11/15 07:56:18;;;;;;;2.63;2.10;;;10.00;99.90;;;;;;5047638;28;20216;-63
2023/11/15 07:58:46;;;;;;;3.43;2.00;;;10.00;99.90;;;;;;5042189;28;20191;-62
2023/11/15 08:01:13;;;;;;;2.80;2.20;;;10.00;99.90;;;;;;5044382;28;20691;-63
2023/11/15 08:03:41;;;;;;;2.20;2.10;;;9.90;99.90;;;;;;5039927;28;20313;-64
2023/11/15 08:06:09;;;;;;;2.30;2.10;;;9.90;99.90;;;;;;5047487;28;20677;-63
2023/11/15 08:08:38;;;;;;;2.53;2.33;;;9.90;99.90;;;;;;5046261;28;20200;-63
2023/11/15 08:11:05;;;;;;;2.67;2.47;;;10.00;99.90;;;;;;5046977;28;20287;-63
2023/11/15 08:13:32;;;;;;;3.00;2.37;;;10.00;99.90;;;;;;5047363;28;20202;-63
2023/11/15 08:15:59;;;;;;;3.87;2.50;;;10.00;99.90;;;;;;5030699;28;20261;-63
2023/11/15 08:18:27;;;;;;;4.03;2.57;;;10.00;99.90;;;;;;5046488;28;20634;-63
2023/11/15 08:20:54;;;;;;;4.20;2.37;;;10.00;99.90;;;;;;5046270;28;20221;-63
2023/11/15 08:23:23;;;;;;;3.20;2.77;;;10.00;99.90;;;;;;5046889;28;20642;-62
2023/11/15 08:25:52;;;;;;;2.30;2.10;;;10.00;99.90;;;;;;5047064;28;20206;-63
2023/11/15 08:28:20;;;;;;;3.57;3.27;;;9.90;99.90;;;;;;5029913;28;20284;-63
2023/11/15 08:30:46;;;;;;;3.70;3.13;;;9.90;99.90;;;;;;5044631;28;20193;-63
2023/11/15 08:33:13;;;;;;;4.20;3.37;;;9.90;99.90;;;;;;5047466;28;20560;-63
2023/11/15 08:35:43;;;;;;;3.17;2.97;;;10.00;99.90;;;;;;5046790;28;20199;-63
2023/11/15 08:38:10;;;;;;;3.00;2.70;;;9.90;99.90;;;;;;5041886;28;20202;-63
2023/11/15 08:40:37;;;;;;;3.53;2.53;;;9.90;99.90;;;;;;5037359;28;20271;-63
2023/11/15 08:43:07;;;;;;;2.90;2.70;;;9.90;99.90;;;;;;5047522;28;20205;-63
2023/11/15 08:45:41;;;;;;;2.87;2.67;;;9.90;99.90;;;;;;5042656;28;20204;-63
2023/11/15 08:48:08;;;;;;;3.17;2.50;;;9.90;99.90;;;;;;5051079;28;20201;-63
2023/11/15 08:50:35;;;;;;;2.87;2.67;;;11.20;99.90;;;;;;5044675;28;20225;-63
2023/11/15 08:53:03;;;;;;;3.37;2.97;;;9.90;99.90;;;;;;5051754;28;20653;-63
2023/11/15 08:55:31;;;;;;;2.87;2.67;;;9.90;99.90;;;;;;5045638;28;20199;-63
2023/11/15 08:57:58;;;;;;;4.27;3.20;;;10.00;99.90;;;;;;5050091;28;20248;-63
2023/11/15 09:00:26;;;;;;;3.77;3.07;;;9.90;99.90;;;;;;5044907;28;20217;-63
2023/11/15 09:02:53;;;;;;;4.07;2.70;;;9.90;99.90;;;;;;5043833;28;20236;-63
2023/11/15 09:05:22;;;;;;;3.10;2.87;;;9.90;99.90;;;;;;5049633;28;20191;-63
2023/11/15 09:07:49;;;;;;;3.93;3.20;;;9.90;99.90;;;;;;5043980;28;20609;-63
2023/11/15 09:10:17;;;;;;;4.53;3.03;;;9.90;99.90;;;;;;5046592;28;20193;-63
2023/11/15 09:12:46;;;;;;;4.00;3.30;;;9.90;99.90;;;;;;5032391;28;20331;-63
2023/11/15 09:15:13;;;;;;;3.20;2.97;;;9.90;99.90;;;;;;5044229;28;20203;-63
2023/11/15 09:17:45;;;;;;;3.30;3.00;;;9.90;99.90;;;;;;5047471;28;20568;-63
2023/11/15 09:20:17;;;;;;;3.17;2.87;;;9.90;99.90;;;;;;5040866;28;20210;-63
2023/11/15 09:22:48;;;;;;;4.67;2.90;;;9.90;99.90;;;;;;5041683;28;20255;-62
2023/11/15 09:25:21;;;;;;;3.30;3.00;;;9.90;99.90;;;;;;5042592;28;20243;-63
2023/11/15 09:27:49;;;;;;;3.27;2.97;;;9.90;99.90;;;;;;5049983;28;20187;-63
2023/11/15 09:30:17;;;;;;;3.00;2.70;;;9.90;99.90;;;;;;5044793;28;20201;-63
2023/11/15 09:32:48;;;;;;;4.77;3.03;;;9.90;99.90;;;;;;5032177;28;20205;-63
2023/11/15 09:35:15;;;;;;;2.97;2.70;;;9.90;99.90;;;;;;5049739;28;20203;-63
2023/11/15 09:37:43;;;;;;;4.93;2.90;;;9.90;99.90;;;;;;5047174;28;20191;-63
2023/11/15 09:40:12;;;;;;;3.37;3.07;;;9.90;99.90;;;;;;5046253;28;20315;-63
2023/11/15 09:42:44;;;;;;;4.33;3.40;;;9.90;99.90;;;;;;5029841;28;20201;-62
2023/11/15 09:45:17;;;;;;;3.23;2.90;;;9.90;99.90;;;;;;5045595;28;20231;-63
2023/11/15 09:47:47;;;;;;;4.10;3.00;;;9.90;99.90;;;;;;5046886;28;20273;-63
2023/11/15 09:50:16;;;;;;;3.27;2.77;;;9.80;99.90;;;;;;5048310;28;20193;-62
2023/11/15 09:52:47;;;;;;;2.83;2.63;;;10.00;99.90;;;;;;5047229;28;20185;-63
2023/11/15 09:55:14;;;;;;;3.47;3.13;;;9.90;99.90;;;;;;5050225;28;20569;-62
2023/11/15 09:57:43;;;;;;;4.20;2.67;;;9.90;99.90;;;;;;5048851;28;20901;-62
2023/11/15 10:00:12;;;;;;;3.10;2.80;;;9.90;99.90;;;;;;5032206;28;20286;-63
2023/11/15 10:02:41;;;;;;;3.77;3.07;;;9.80;99.90;;;;;;5033387;28;20278;-63
2023/11/15 10:05:20;;;;;;;5.17;3.30;;;9.90;99.90;;;;;;5036021;28;20191;-63
2023/11/15 10:07:48;;;;;;;3.00;2.77;;;9.80;99.90;;;;;;5030441;28;20830;-64
2023/11/15 10:10:20;;;;;;;6.50;3.37;;;9.80;99.90;;;;;;5045027;28;20271;-63
2023/11/15 10:12:50;;;;;;;4.97;3.17;;;9.80;99.90;;;;;;5045404;28;20197;-63
2023/11/15 10:15:19;;;;;;;3.97;3.30;;;9.80;99.90;;;;;;5027611;28;20224;-64
2023/11/15 10:17:48;;;;;;;3.63;3.10;;;9.80;99.90;;;;;;5032414;28;20194;-64
2023/11/15 10:20:25;;;;;;;5.30;3.43;;;9.80;99.90;;;;;;5050136;28;20218;-64
2023/11/15 10:22:54;;;;;;;4.73;2.90;;;9.90;99.90;;;;;;5048993;28;20522;-64
2023/11/15 10:25:25;;;;;;;3.87;3.20;;;9.90;99.90;;;;;;5049962;28;20529;-64
2023/11/15 10:27:52;;;;;;;7.23;3.00;;;10.30;99.90;;;;;;5045515;28;20600;-63
2023/11/15 10:30:22;;;;;;;4.13;3.07;;;9.80;99.90;;;;;;5044590;28;20249;-63
2023/11/15 10:32:51;;;;;;;2.70;2.50;;;9.90;99.90;;;;;;5043491;28;20193;-63
2023/11/15 10:35:27;;;;;;;4.33;2.80;;;9.10;99.90;;;;;;5050069;28;20278;-63
2023/11/15 10:37:55;;;;;;;2.77;2.57;;;10.00;99.90;;;;;;5040506;28;20205;-63
2023/11/15 10:40:25;;;;;;;7.60;3.10;;;10.00;99.90;;;;;;5046371;28;20217;-63
2023/11/15 10:42:54;;;;;;;7.50;3.47;;;10.10;99.90;;;;;;5046343;28;20713;-63
2023/11/15 10:45:24;;;;;;;4.77;3.50;;;10.00;99.90;;;;;;5049369;28;20203;-63
2023/11/15 10:47:57;;;;;;;3.57;2.60;;;10.00;99.90;;;;;;5032846;28;20209;-63
2023/11/15 10:50:30;;;;;;;4.60;3.03;;;10.00;99.90;;;;;;5049378;28;20577;-63
2023/11/15 10:52:59;;;;;;;4.90;3.03;;;10.00;99.90;;;;;;5048060;28;20255;-63
2023/11/15 10:55:28;;;;;;;3.50;2.70;;;10.00;99.90;;;;;;5044339;28;20243;-63
2023/11/15 10:58:02;;;;;;;3.30;2.60;;;10.00;99.90;;;;;;5045735;28;20258;-63
2023/11/15 11:00:30;;;;;;;4.10;2.27;;;10.00;99.90;;;;;;5048141;28;20212;-63
2023/11/15 11:02:58;;;;;;;4.17;2.43;;;10.00;99.90;;;;;;5044333;28;20714;-63
2023/11/15 11:05:41;;;;;;;4.13;2.33;;;9.90;99.90;;;;;;5048516;28;20242;-63
2023/11/15 11:08:22;;;;;;;2.10;1.93;;;9.90;99.90;;;;;;5039954;28;20260;-63
2023/11/15 11:10:59;;;;;;;2.20;2.00;;;9.90;99.90;;;;;;5048833;28;20732;-63
2023/11/15 11:13:26;;;;;;;4.20;2.03;;;9.90;99.90;;;;;;5045741;28;20201;-63
2023/11/15 11:15:54;;;;;;;2.33;1.80;;;9.90;99.90;;;;;;5049027;28;20197;-63
2023/11/15 11:18:22;;;;;;;1.90;1.80;;;9.90;99.90;;;;;;5044599;28;20193;-63
2023/11/15 11:21:01;;;;;;;1.57;1.47;;;9.90;99.90;;;;;;5049210;28;20203;-62
2023/11/15 11:23:30;;;;;;;1.60;1.47;;;9.90;99.90;;;;;;5028680;28;20268;-62
2023/11/15 11:26:33;;;;;;;3.07;1.50;;;9.90;99.90;;;;;;5049629;28;20190;-62
2023/11/15 11:29:02;;;;;;;2.97;1.53;;;9.90;99.90;;;;;;5042546;28;20645;-62
2023/11/15 11:31:30;;;;;;;1.30;1.10;;;9.90;99.90;;;;;;5048109;28;20822;-63
2023/11/15 11:34:18;;;;;;;1.50;1.40;;;9.90;99.90;;;;;;5046027;28;20244;-63
2023/11/15 11:36:49;;;;;;;2.03;1.20;;;10.00;99.90;;;;;;5046068;28;20187;-63
2023/11/15 11:39:22;;;;;;;2.93;1.60;;;10.00;99.90;;;;;;5047829;28;20673;-63
2023/11/15 11:41:50;;;;;;;1.40;1.33;;;10.10;99.90;;;;;;5044927;28;20208;-63
2023/11/15 11:44:18;;;;;;;1.57;1.33;;;10.10;99.90;;;;;;5043844;28;20201;-62
2023/11/15 11:47:01;;;;;;;4.33;2.00;;;10.10;99.90;;;;;;5029439;28;20633;-62
2023/11/15 11:49:28;;;;;;;9.30;2.00;;;10.10;99.90;;;;;;5045862;28;20226;-63
2023/11/15 11:51:57;;;;;;;5.47;1.70;;;10.20;99.90;;;;;;5048437;28;20226;-62
2023/11/15 11:54:26;;;;;;;2.03;1.30;;;10.20;99.90;;;;;;5047459;28;20195;-63
2023/11/15 11:56:54;;;;;;;3.97;1.20;;;10.20;99.90;;;;;;5047312;28;20258;-62
2023/11/15 11:59:21;;;;;;;5.27;1.50;;;10.20;99.90;;;;;;5030051;28;20209;-63
2023/11/15 12:01:50;;;;;;;4.37;1.93;;;10.30;99.90;;;;;;5044237;28;20294;-62
2023/11/15 12:04:17;;;;;;;1.37;1.27;;;10.30;99.90;;;;;;5043831;28;20273;-62
2023/11/15 12:06:45;;;;;;;9.90;1.27;;;10.30;99.90;;;;;;5048477;28;20190;-62
2023/11/15 12:09:22;;;;;;;2.20;1.50;;;10.30;99.90;;;;;;5024868;28;20200;-63
2023/11/15 12:11:49;;;;;;;2.33;1.57;;;10.30;99.90;;;;;;5047677;28;20247;-62
2023/11/15 12:14:16;;;;;;;3.53;1.63;;;10.30;99.90;;;;;;5047601;28;20281;-62
2023/11/15 12:16:43;;;;;;;3.30;2.10;;;10.30;99.90;;;;;;5048765;28;20608;-62
2023/11/15 12:19:12;;;;;;;3.97;2.40;;;10.30;99.90;;;;;;5043491;28;20655;-63
2023/11/15 12:21:44;;;;;;;2.03;1.83;;;10.30;99.90;;;;;;5045462;28;20206;-63
2023/11/15 12:24:17;;;;;;;2.17;1.83;;;10.30;99.90;;;;;;5051308;28;20243;-63
2023/11/15 12:26:46;;;;;;;14.13;1.60;;;10.30;99.90;;;;;;5051790;28;20200;-63
2023/11/15 12:29:19;;;;;;;12.33;1.30;;;10.30;99.90;;;;;;5045107;28;20336;-63
2023/11/15 12:31:47;;;;;;;7.30;1.10;;;10.30;99.90;;;;;;5046671;28;20198;-63
2023/11/15 12:34:15;;;;;;;10.00;3.83;;;10.30;99.90;;;;;;5047943;28;20199;-63
2023/11/15 12:36:44;;;;;;;3.47;2.23;;;10.20;99.90;;;;;;5045676;28;20559;-63
2023/11/15 12:39:13;;;;;;;3.10;2.17;;;10.20;99.90;;;;;;5045551;28;20196;-63
2023/11/15 12:41:47;;;;;;;2.43;1.73;;;10.20;99.90;;;;;;5048325;28;20676;-63
2023/11/15 12:44:14;;;;;;;4.97;1.80;;;10.30;99.90;;;;;;5048650;28;20587;-63
2023/11/15 12:46:42;;;;;;;3.40;1.80;;;10.20;99.90;;;;;;5051834;28;20199;-63
2023/11/15 12:49:14;;;;;;;1.80;1.70;;;10.20;99.90;;;;;;5048790;28;20214;-63
2023/11/15 12:51:47;;;;;;;1.70;1.60;;;10.20;99.90;;;;;;5051367;28;20197;-63
2023/11/15 12:54:16;;;;;;;5.77;2.17;;;10.20;99.90;;;;;;5041161;28;20194;-63